createdAt,value
2019-01-03T00:00:36.281Z,116.00
2019-01-03T00:03:21.346Z,148.80
2019-01-03T00:06:00.182Z,128.00
2019-01-03T00:08:45.552Z,116.60
2019-01-03T00:11:21.408Z,119.73
2019-01-03T00:14:02.003Z,123.23
2019-01-03T00:16:38.025Z,122.67
2019-01-03T00:19:20.053Z,119.57
2019-01-03T00:21:53.478Z,128.50
2019-01-03T00:24:29.926Z,122.07
2019-01-03T00:27:05.584Z,113.23
2019-01-03T00:29:45.145Z,121.03
2019-01-03T00:32:24.625Z,139.27
2019-01-03T00:35:11.227Z,140.47
2019-01-03T00:37:59.681Z,116.03
2019-01-03T00:40:35.884Z,123.27
2019-01-03T00:43:08.529Z,117.33
2019-01-03T00:45:55.340Z,134.83
2019-01-03T00:48:31.298Z,116.73
2019-01-03T00:51:01.568Z,137.83
2019-01-03T00:53:48.046Z,144.23
2019-01-03T00:56:34.789Z,120.27
2019-01-03T00:59:14.015Z,133.80
2019-01-03T01:01:44.284Z,123.20
2019-01-03T01:04:23.610Z,125.53
2019-01-03T01:07:09.939Z,120.27
2019-01-03T01:09:40.235Z,132.93
2019-01-03T01:12:10.421Z,121.00
2019-01-03T01:14:44.241Z,111.00
2019-01-03T01:17:26.419Z,117.27
2019-01-03T01:20:09.043Z,118.50
2019-01-03T01:22:39.181Z,128.33
2019-01-03T01:25:12.461Z,120.90
2019-01-03T01:27:42.606Z,114.43
2019-01-03T01:30:30.954Z,112.87
2019-01-03T01:33:00.869Z,123.00
2019-01-03T01:35:47.658Z,106.60
2019-01-03T01:38:35.904Z,115.97
2019-01-03T01:41:22.730Z,113.20
2019-01-03T01:43:52.974Z,121.40
2019-01-03T01:46:23.190Z,107.63
2019-01-03T01:48:58.999Z,108.50
2019-01-03T01:51:29.160Z,100.73
2019-01-03T01:53:59.379Z,103.47
2019-01-03T01:56:38.949Z,99.73
2019-01-03T01:59:09.108Z,117.63
2019-01-03T02:01:42.040Z,104.87
2019-01-03T02:04:12.264Z,106.90
2019-01-03T02:06:58.289Z,101.07
2019-01-03T02:09:40.471Z,112.13
2019-01-03T02:12:17.121Z,121.97
2019-01-03T02:14:47.333Z,107.33
2019-01-03T02:17:19.977Z,106.50
2019-01-03T02:20:05.840Z,117.77
2019-01-03T02:22:41.713Z,115.37
2019-01-03T02:25:11.931Z,117.10
2019-01-03T02:27:57.521Z,113.00
2019-01-03T02:30:40.071Z,113.07
2019-01-03T02:33:10.325Z,116.40
2019-01-03T02:35:57.238Z,112.20
2019-01-03T02:38:29.937Z,109.47
2019-01-03T02:41:08.682Z,109.97
2019-01-03T02:43:38.879Z,143.70
2019-01-03T02:46:11.601Z,113.97
2019-01-03T02:48:57.115Z,104.13
2019-01-03T02:51:32.943Z,112.77
2019-01-03T02:54:06.103Z,103.50
2019-01-03T02:56:39.317Z,125.03
2019-01-03T02:59:18.615Z,125.70
2019-01-03T03:01:54.743Z,109.40
2019-01-03T03:04:40.725Z,112.07
2019-01-03T03:07:10.943Z,106.33
2019-01-03T03:09:44.188Z,110.57
2019-01-03T03:12:14.414Z,114.80
2019-01-03T03:14:50.594Z,106.37
2019-01-03T03:17:23.752Z,103.07
2019-01-03T03:20:07.924Z,111.10
2019-01-03T03:22:37.846Z,108.20
2019-01-03T03:25:13.864Z,115.43
2019-01-03T03:27:47.217Z,123.80
2019-01-03T03:30:29.500Z,135.03
2019-01-03T03:33:17.476Z,106.70
2019-01-03T03:35:51.039Z,130.03
2019-01-03T03:38:20.994Z,110.00
2019-01-03T03:40:57.400Z,107.90
2019-01-03T03:43:33.408Z,105.80
2019-01-03T03:46:03.284Z,117.63
2019-01-03T03:48:39.494Z,99.20
2019-01-03T03:51:26.345Z,103.40
2019-01-03T03:54:12.895Z,113.13
2019-01-03T03:56:43.170Z,109.73
2019-01-03T03:59:29.769Z,104.70
2019-01-03T04:02:02.778Z,101.67
2019-01-03T04:04:32.679Z,101.47
2019-01-03T04:07:10.465Z,104.37
2019-01-03T04:09:40.380Z,114.57
2019-01-03T04:12:19.825Z,101.00
2019-01-03T04:14:50.028Z,94.67
2019-01-03T04:17:26.296Z,103.90
2019-01-03T04:20:12.910Z,101.03
2019-01-03T04:23:01.134Z,109.23
2019-01-03T04:25:31.345Z,98.60
2019-01-03T04:28:01.565Z,115.87
2019-01-03T04:30:47.881Z,108.43
2019-01-03T04:33:21.171Z,104.87
2019-01-03T04:35:51.426Z,100.07
2019-01-03T04:38:24.720Z,114.33
2019-01-03T04:40:58.069Z,100.43
2019-01-03T04:43:27.980Z,102.67
2019-01-03T04:46:00.950Z,98.30
2019-01-03T04:48:46.422Z,98.40
2019-01-03T04:51:19.673Z,96.93
2019-01-03T04:53:55.910Z,105.47
2019-01-03T04:56:34.976Z,95.77
2019-01-03T04:59:11.369Z,149.43
2019-01-03T05:01:56.333Z,107.83
2019-01-03T05:04:41.441Z,106.27
2019-01-03T05:07:17.652Z,104.20
2019-01-03T05:10:03.165Z,109.57
2019-01-03T05:12:49.775Z,106.17
2019-01-03T05:15:22.855Z,111.03
2019-01-03T05:18:09.888Z,119.30
2019-01-03T05:20:56.315Z,122.37
2019-01-03T05:23:42.839Z,115.43
2019-01-03T05:26:25.085Z,107.33
2019-01-03T05:29:04.213Z,125.97
2019-01-03T05:31:34.436Z,111.43
2019-01-03T05:34:10.528Z,124.07
2019-01-03T05:36:40.679Z,110.90
2019-01-03T05:39:27.381Z,124.70
2019-01-03T05:41:57.654Z,102.87
2019-01-03T05:44:27.879Z,114.27
2019-01-03T05:47:16.784Z,108.17
2019-01-03T05:49:56.017Z,104.90
2019-01-03T05:52:38.397Z,122.77
2019-01-03T05:55:20.922Z,131.53
2019-01-03T05:57:51.228Z,113.67
2019-01-03T06:00:24.654Z,149.00
2019-01-03T06:02:54.871Z,138.43
2019-01-03T06:05:41.651Z,178.50
2019-01-03T06:08:26.993Z,136.43
2019-01-03T06:11:13.226Z,154.20
2019-01-03T06:13:52.468Z,151.60
2019-01-03T06:16:38.923Z,107.70
2019-01-03T06:19:25.332Z,115.20
2019-01-03T06:22:11.995Z,108.03
2019-01-03T06:24:57.320Z,108.97
2019-01-03T06:27:36.112Z,109.80
2019-01-03T06:30:22.641Z,105.10
2019-01-03T06:33:04.904Z,106.10
2019-01-03T06:35:51.401Z,110.20
2019-01-03T06:38:21.558Z,102.60
2019-01-03T06:41:06.880Z,113.43
2019-01-03T06:43:53.222Z,112.27
2019-01-03T06:46:23.495Z,115.60
2019-01-03T06:49:02.505Z,111.47
2019-01-03T06:51:42.220Z,117.80
2019-01-03T06:54:18.274Z,132.47
2019-01-03T06:56:57.275Z,115.77
2019-01-03T06:59:27.840Z,111.37
2019-01-03T07:02:14.708Z,115.60
2019-01-03T07:04:50.601Z,106.50
2019-01-03T07:07:23.625Z,110.47
2019-01-03T07:10:02.477Z,109.03
2019-01-03T07:12:32.740Z,112.97
2019-01-03T07:15:14.437Z,115.57
2019-01-03T07:18:01.033Z,114.17
2019-01-03T07:20:31.172Z,113.17
2019-01-03T07:23:04.676Z,444.03
2019-01-03T07:25:50.956Z,469.47
2019-01-03T07:28:29.894Z,159.52
2019-01-03T07:31:18.734Z,11.20
2019-01-03T07:34:05.624Z,59.07
2019-01-03T07:36:35.826Z,15.60
2019-01-03T07:39:07.740Z,13.73
2019-01-03T07:41:41.149Z,14.73
2019-01-03T07:44:17.482Z,11.23
2019-01-03T07:46:47.750Z,16.50
2019-01-03T07:49:23.699Z,15.27
2019-01-03T07:52:06.131Z,15.00
2019-01-03T07:54:42.213Z,10.93
2019-01-03T07:57:27.316Z,9.17
2019-01-03T08:00:13.785Z,11.80
2019-01-03T08:02:53.001Z,26.63
2019-01-03T08:05:23.150Z,10.70
2019-01-03T08:07:53.355Z,11.70
2019-01-03T08:10:40.099Z,19.00
2019-01-03T08:13:16.533Z,12.37
2019-01-03T08:15:52.915Z,16.70
2019-01-03T08:18:35.356Z,18.73
2019-01-03T08:21:08.615Z,24.57
2019-01-03T08:23:55.384Z,23.27
2019-01-03T08:26:37.894Z,18.60
2019-01-03T08:29:23.083Z,25.40
2019-01-03T08:32:08.223Z,46.83
2019-01-03T08:34:44.180Z,13.50
2019-01-03T08:37:26.427Z,16.53
2019-01-03T08:39:56.636Z,12.93
2019-01-03T08:42:32.640Z,13.20
2019-01-03T08:45:11.701Z,51.50
2019-01-03T08:47:41.958Z,12.13
2019-01-03T08:50:12.160Z,12.73
2019-01-03T08:52:58.948Z,9.57
2019-01-03T08:55:41.332Z,10.57
2019-01-03T08:58:14.083Z,9.90
2019-01-03T09:01:00.518Z,6.50
2019-01-03T09:03:39.512Z,10.60
2019-01-03T09:06:25.971Z,5.60
2019-01-03T09:08:56.215Z,10.40
2019-01-03T09:11:32.276Z,9.57
2019-01-03T09:14:09.493Z,7.43
2019-01-03T09:16:39.632Z,4.57
2019-01-03T09:19:18.705Z,7.80
2019-01-03T09:21:54.879Z,9.03
2019-01-03T09:24:41.602Z,55.27
2019-01-03T09:27:26.926Z,133.55
2019-01-03T09:30:13.850Z,13.73
2019-01-03T09:32:50.088Z,126.20
2019-01-03T09:35:36.856Z,146.47
2019-01-03T09:38:13.065Z,110.73
2019-01-03T09:40:48.811Z,144.23
2019-01-03T09:43:21.996Z,143.50
2019-01-03T09:45:50.638Z,142.30
2019-01-03T09:48:19.259Z,123.20
2019-01-03T09:50:47.827Z,121.07
2019-01-03T09:53:16.384Z,117.17
2019-01-03T09:55:45.070Z,139.93
2019-01-03T09:58:13.643Z,131.20
2019-01-03T10:00:42.213Z,145.17
2019-01-03T10:03:11.186Z,124.67
2019-01-03T10:05:39.816Z,131.03
2019-01-03T10:08:08.458Z,126.83
2019-01-03T10:10:37.059Z,126.43
2019-01-03T10:13:05.635Z,133.07
2019-01-03T10:15:34.199Z,144.27
2019-01-03T10:18:02.883Z,126.50
2019-01-03T10:20:31.376Z,125.10
2019-01-03T10:23:00.000Z,135.10
2019-01-03T10:25:28.686Z,121.40
2019-01-03T10:27:57.326Z,120.90
2019-01-03T10:30:25.895Z,146.67
2019-01-03T10:32:54.736Z,138.60
2019-01-03T10:35:23.359Z,126.13
2019-01-03T10:37:51.886Z,125.63
2019-01-03T10:40:20.496Z,129.17
2019-01-03T10:42:49.151Z,139.80
2019-01-03T10:45:17.717Z,140.70
2019-01-03T10:47:46.342Z,129.80
2019-01-03T10:50:14.982Z,118.33
2019-01-03T10:52:43.629Z,125.30
2019-01-03T10:55:12.321Z,120.13
2019-01-03T10:57:40.955Z,125.70
2019-01-03T11:00:10.100Z,133.87
2019-01-03T11:02:38.794Z,133.87
2019-01-03T11:05:08.993Z,138.47
2019-01-03T11:07:37.627Z,133.17
2019-01-03T11:10:06.414Z,126.20
2019-01-03T11:12:34.974Z,130.83
2019-01-03T11:15:03.545Z,133.63
2019-01-03T11:17:32.158Z,130.23
2019-01-03T11:20:00.802Z,135.10
2019-01-03T11:22:29.312Z,126.63
2019-01-03T11:24:58.000Z,126.97
2019-01-03T11:27:26.647Z,126.87
2019-01-03T11:29:55.284Z,130.17
2019-01-03T11:32:23.975Z,129.20
2019-01-03T11:34:52.951Z,134.17
2019-01-03T11:37:21.611Z,132.60
2019-01-03T11:39:50.216Z,129.13
2019-01-03T11:42:18.862Z,133.63
2019-01-03T11:44:47.428Z,129.40
2019-01-03T11:47:16.114Z,134.57
2019-01-03T11:49:44.767Z,131.77
2019-01-03T11:52:13.407Z,134.00
2019-01-03T11:54:42.022Z,132.83
2019-01-03T11:57:10.658Z,138.80
2019-01-03T11:59:39.301Z,125.43
2019-01-03T12:02:07.974Z,74.10
2019-01-03T12:04:36.606Z,53.00
2019-01-03T12:07:05.237Z,30.40
2019-01-03T12:09:33.935Z,116.60
2019-01-03T12:12:02.569Z,132.73
2019-01-03T12:14:31.138Z,101.10
2019-01-03T12:16:59.813Z,113.43
2019-01-03T12:19:28.383Z,114.93
2019-01-03T12:21:57.024Z,90.63
2019-01-03T12:24:30.616Z,116.90
2019-01-03T12:26:55.778Z,76.90
2019-01-03T12:29:24.349Z,95.03
2019-01-03T12:31:53.017Z,124.13
2019-01-03T12:34:21.592Z,108.10
2019-01-03T12:36:50.232Z,122.97
2019-01-03T12:39:19.089Z,133.17
2019-01-03T12:41:47.607Z,126.93
2019-01-03T12:44:16.239Z,128.37
2019-01-03T12:46:44.931Z,130.53
2019-01-03T12:49:13.566Z,130.07
2019-01-03T12:51:42.063Z,130.97
2019-01-03T12:54:10.749Z,124.60
2019-01-03T12:56:39.321Z,124.30
2019-01-03T12:59:07.897Z,151.83
2019-01-03T13:01:36.507Z,137.30
2019-01-03T13:04:05.014Z,130.30
2019-01-03T13:06:33.649Z,113.53
2019-01-03T13:09:02.452Z,116.00
2019-01-03T13:11:31.028Z,124.63
2019-01-03T13:13:59.595Z,102.60
2019-01-03T13:16:28.257Z,60.20
2019-01-03T13:18:56.851Z,121.97
2019-01-03T13:21:25.413Z,76.30
2019-01-03T13:23:54.025Z,83.27
2019-01-03T13:26:22.659Z,83.23
2019-01-03T13:28:51.314Z,100.37
2019-01-03T13:31:19.984Z,46.27
2019-01-03T13:33:48.634Z,93.77
2019-01-03T13:36:17.179Z,82.23
2019-01-03T13:38:45.790Z,68.23
2019-01-03T13:41:14.355Z,74.40
2019-01-03T13:43:42.987Z,97.23
2019-01-03T13:46:11.664Z,91.43
2019-01-03T13:48:40.238Z,43.77
2019-01-03T13:51:09.208Z,97.67
2019-01-03T13:53:37.813Z,118.70
2019-01-03T13:56:06.457Z,46.37
2019-01-03T13:58:35.017Z,64.37
2019-01-03T14:01:04.108Z,45.83
2019-01-03T14:03:32.662Z,32.30
2019-01-03T14:06:01.228Z,119.80
2019-01-03T14:08:29.849Z,146.07
2019-01-03T14:10:58.481Z,152.07
2019-01-03T14:13:28.614Z,144.83
2019-01-03T14:15:57.225Z,164.03
2019-01-03T14:18:25.791Z,124.83
2019-01-03T14:20:54.354Z,72.97
2019-01-03T14:23:22.654Z,117.80
2019-01-03T14:25:51.227Z,135.93
2019-01-03T14:28:19.859Z,12.87
2019-01-03T14:30:48.480Z,5.83
2019-01-03T14:33:17.116Z,16.40
2019-01-03T14:35:45.750Z,15.63
2019-01-03T14:38:14.410Z,13.37
2019-01-03T14:40:43.394Z,13.83
2019-01-03T14:43:12.033Z,10.20
2019-01-03T14:45:40.581Z,9.53
2019-01-03T14:48:09.157Z,5.27
2019-01-03T14:50:38.191Z,5.33
2019-01-03T14:53:07.275Z,8.60
2019-01-03T14:55:35.830Z,10.30
2019-01-03T14:58:04.523Z,10.90
2019-01-03T15:00:33.250Z,8.17
2019-01-03T15:03:01.877Z,3.97
2019-01-03T15:05:30.448Z,12.13
2019-01-03T15:07:59.040Z,10.13
2019-01-03T15:10:28.228Z,15.57
2019-01-03T15:12:56.910Z,13.23
2019-01-03T15:15:25.590Z,13.73
2019-01-03T15:17:54.152Z,15.63
2019-01-03T15:20:22.729Z,15.97
2019-01-03T15:22:51.387Z,7.17
2019-01-03T15:25:19.961Z,16.17
2019-01-03T15:27:48.514Z,4.03
2019-01-03T15:30:17.117Z,2.87
2019-01-03T15:32:45.686Z,2.23
2019-01-03T15:35:14.326Z,15.93
2019-01-03T15:37:43.043Z,8.33
2019-01-03T15:40:11.680Z,5.43
2019-01-03T15:42:40.270Z,11.63
2019-01-03T15:45:10.465Z,6.10
2019-01-03T15:47:39.021Z,11.00
2019-01-03T15:50:10.431Z,7.50
2019-01-03T15:52:39.401Z,149.30
2019-01-03T15:55:11.249Z,114.80
2019-01-03T15:57:39.592Z,129.25
2019-01-03T16:00:10.189Z,133.73
2019-01-03T16:02:38.838Z,172.93
2019-01-03T16:05:10.659Z,103.97
2019-01-03T16:07:39.369Z,109.13
2019-01-03T16:10:07.622Z,104.50
2019-01-03T16:12:36.217Z,113.10
2019-01-03T16:15:06.792Z,142.53
2019-01-03T16:17:35.363Z,110.60
2019-01-03T16:20:04.308Z,118.53
2019-01-03T16:22:33.000Z,111.53
2019-01-03T16:25:01.577Z,115.97
2019-01-03T16:27:30.216Z,113.27
2019-01-03T16:29:58.585Z,119.57
2019-01-03T16:32:27.230Z,108.60
2019-01-03T16:34:55.822Z,94.20
2019-01-03T16:37:24.196Z,115.70
2019-01-03T16:39:52.844Z,114.13
2019-01-03T16:42:21.423Z,111.67
2019-01-03T16:44:49.802Z,100.47
2019-01-03T16:47:18.143Z,106.37
2019-01-03T16:49:46.781Z,99.50
2019-01-03T16:52:15.394Z,110.70
2019-01-03T16:54:44.133Z,106.27
2019-01-03T16:57:12.400Z,100.25
2019-01-03T16:59:41.203Z,109.77
2019-01-03T17:02:09.549Z,115.10
2019-01-03T17:04:38.190Z,96.85
2019-01-03T17:07:06.888Z,99.32
2019-01-03T17:09:35.562Z,104.92
2019-01-03T17:12:03.896Z,107.50
2019-01-03T17:14:32.571Z,109.50
2019-01-03T17:17:01.171Z,107.53
2019-01-03T17:19:29.738Z,99.65
2019-01-03T17:21:58.419Z,112.70
2019-01-03T17:24:26.988Z,108.10
2019-01-03T17:26:58.346Z,104.53
2019-01-03T17:29:27.041Z,125.07
2019-01-03T17:31:55.617Z,112.63
2019-01-03T17:34:24.111Z,116.87
2019-01-03T17:36:52.495Z,105.70
2019-01-03T17:39:23.511Z,106.87
2019-01-03T17:41:51.789Z,131.78
2019-01-03T17:44:20.404Z,120.30
2019-01-03T17:46:48.662Z,109.93
2019-01-03T17:49:16.919Z,106.50
2019-01-03T17:51:45.534Z,105.17
2019-01-03T17:54:14.926Z,132.37
2019-01-03T17:56:43.205Z,121.57
2019-01-03T17:59:11.824Z,116.77
2019-01-03T18:01:40.477Z,111.12
2019-01-03T18:04:10.624Z,102.30
2019-01-03T18:06:39.233Z,105.73
2019-01-03T18:09:07.811Z,98.97
2019-01-03T18:11:36.454Z,102.23
2019-01-03T18:14:04.852Z,108.20
2019-01-03T18:16:33.427Z,113.53
2019-01-03T18:19:01.935Z,109.67
2019-01-03T18:21:30.640Z,103.03
2019-01-03T18:23:59.839Z,110.42
2019-01-03T18:26:28.416Z,114.65
2019-01-03T18:28:57.983Z,110.68
2019-01-03T18:31:26.637Z,105.92
2019-01-03T18:33:54.893Z,107.20
2019-01-03T18:36:23.189Z,113.00
2019-01-03T18:38:51.475Z,115.47
2019-01-03T18:41:20.132Z,118.87
2019-01-03T18:43:48.446Z,108.85
2019-01-03T18:46:17.033Z,115.37
2019-01-03T18:48:45.627Z,115.17
2019-01-03T18:51:15.757Z,116.50
2019-01-03T18:53:45.394Z,110.25
2019-01-03T18:56:13.740Z,113.50
2019-01-03T18:58:42.451Z,109.40
2019-01-03T19:01:12.031Z,115.47
2019-01-03T19:03:40.387Z,113.42
2019-01-03T19:06:09.062Z,106.83
2019-01-03T19:08:37.707Z,116.57
2019-01-03T19:11:06.368Z,106.83
2019-01-03T19:13:34.687Z,114.45
2019-01-03T19:16:03.326Z,114.80
2019-01-03T19:18:31.892Z,122.07
2019-01-03T19:21:00.786Z,147.80
2019-01-03T19:23:29.734Z,136.30
2019-01-03T19:25:58.080Z,122.85
2019-01-03T19:28:26.682Z,114.60
2019-01-03T19:30:55.033Z,126.70
2019-01-03T19:33:23.591Z,130.95
2019-01-03T19:35:51.979Z,115.95
2019-01-03T19:38:20.315Z,111.42
2019-01-03T19:40:48.972Z,115.65
2019-01-03T19:43:17.683Z,117.37
2019-01-03T19:45:46.021Z,104.38
2019-01-03T19:48:15.015Z,111.17
2019-01-03T19:50:43.714Z,109.95
2019-01-03T19:53:12.270Z,112.47
2019-01-03T19:55:40.529Z,108.00
2019-01-03T19:58:08.839Z,105.22
2019-01-03T20:00:37.497Z,118.22
2019-01-03T20:03:05.756Z,113.20
2019-01-03T20:05:34.132Z,112.60
2019-01-03T20:08:02.799Z,108.57
2019-01-03T20:10:31.142Z,110.68
2019-01-03T20:12:59.511Z,125.47
2019-01-03T20:15:27.777Z,125.03
2019-01-03T20:17:56.347Z,137.63
2019-01-03T20:20:25.034Z,124.93
2019-01-03T20:22:53.681Z,124.80
2019-01-03T20:25:23.912Z,357.67
2019-01-03T20:27:52.599Z,755.93
2019-01-03T20:30:20.947Z,559.07
2019-01-03T20:32:49.204Z,195.77
2019-01-03T20:35:17.862Z,190.83
2019-01-03T20:37:46.206Z,193.90
2019-01-03T20:40:15.162Z,238.90
2019-01-03T20:42:44.107Z,285.47
2019-01-03T20:45:12.636Z,329.37
2019-01-03T20:47:41.280Z,219.43
2019-01-03T20:50:11.651Z,237.77
2019-01-03T20:52:40.309Z,168.47
2019-01-03T20:55:10.104Z,135.63
2019-01-03T20:57:38.784Z,135.27
2019-01-03T21:00:12.532Z,156.10
2019-01-03T21:02:41.792Z,125.40
2019-01-03T21:05:10.456Z,141.03
2019-01-03T21:07:39.326Z,147.47
2019-01-03T21:10:12.019Z,167.47
2019-01-03T21:12:40.693Z,131.47
2019-01-03T21:15:14.923Z,159.67
2019-01-03T21:17:43.982Z,175.60
2019-01-03T21:20:15.099Z,145.07
2019-01-03T21:22:43.741Z,145.40
2019-01-03T21:25:13.646Z,141.43
2019-01-03T21:27:42.526Z,142.70
2019-01-03T21:30:16.384Z,134.93
2019-01-03T21:32:45.031Z,108.00
2019-01-03T21:35:13.724Z,85.30
2019-01-03T21:37:42.352Z,68.23
2019-01-03T21:40:11.717Z,35.47
2019-01-03T21:42:41.358Z,90.33
2019-01-03T21:45:09.992Z,82.70
2019-01-03T21:47:38.627Z,92.40
2019-01-03T21:50:09.814Z,73.73
2019-01-03T21:52:38.720Z,112.97
2019-01-03T21:55:08.938Z,123.07
2019-01-03T21:57:37.564Z,92.90
2019-01-03T22:00:09.152Z,60.63
2019-01-03T22:02:37.797Z,46.03
2019-01-03T22:05:09.483Z,107.47
2019-01-03T22:07:38.133Z,56.67
2019-01-03T22:10:09.051Z,27.53
2019-01-03T22:12:37.730Z,18.27
2019-01-03T22:15:07.987Z,17.10
2019-01-03T22:17:36.542Z,25.63
2019-01-03T22:20:07.417Z,17.47
2019-01-03T22:22:36.052Z,14.77
2019-01-03T22:25:08.198Z,20.97
2019-01-03T22:27:36.816Z,25.50
2019-01-03T22:30:10.365Z,30.63
2019-01-03T22:32:39.016Z,20.77
2019-01-03T22:35:08.140Z,32.57
2019-01-03T22:37:36.686Z,29.40
2019-01-03T22:40:06.969Z,14.63
2019-01-03T22:42:35.614Z,21.77
2019-01-03T22:45:06.994Z,14.10
2019-01-03T22:47:35.596Z,25.73
2019-01-03T22:50:08.144Z,15.73
2019-01-03T22:52:36.774Z,6.27
2019-01-03T22:55:06.508Z,15.07
2019-01-03T22:57:35.110Z,21.50
2019-01-03T23:00:08.775Z,13.07
2019-01-03T23:02:37.412Z,21.63
2019-01-03T23:05:06.299Z,19.37
2019-01-03T23:07:34.930Z,13.70
2019-01-03T23:10:03.788Z,7.37
2019-01-03T23:12:32.389Z,17.60
2019-01-03T23:15:00.955Z,14.97
2019-01-03T23:17:29.601Z,21.00
2019-01-03T23:19:58.218Z,26.00
2019-01-03T23:22:26.771Z,19.10
2019-01-03T23:24:55.331Z,21.00
2019-01-03T23:27:24.332Z,18.03
2019-01-03T23:29:52.988Z,44.17
2019-01-03T23:32:21.606Z,74.03
2019-01-03T23:34:50.301Z,45.53
2019-01-03T23:37:18.940Z,11.00
2019-01-03T23:39:48.359Z,17.10
2019-01-03T23:42:17.032Z,16.63
2019-01-03T23:45:12.876Z,5.57
2019-01-03T23:47:41.545Z,12.53
2019-01-03T23:50:13.437Z,19.30
2019-01-03T23:52:42.072Z,12.20
2019-01-03T23:55:10.749Z,12.20
2019-01-03T23:57:39.310Z,17.07
